Terminal Aerodrome Forecast
Issued by NWS Boston, MA

Home | Current Version | Previous Version | Text Only | Print | Product List | Glossary On
Versions: 1 2 3 4 5 6 7 8 9 10 11 12 13 14 15 16 17 18 19 20 21 22 23 24 25 26 27 28 29 30 31 32 33 34 35 36 37 38 39 40 41
000
FTUS41 KBOX 281121
TAFBOS
TAF
KBOS 281121Z 2812/2918 01012KT 4SM -SHSN BKN008 OVC020
     FM281800 01012G23KT 2SM -SHSN BKN008 OVC015
     FM282100 01015KT 2SM -SHSN BR OVC008
     FM290100 36009KT 3SM BR OVC010
     FM290600 33009KT P6SM OVC015
     FM290700 33009KT P6SM OVC030=

USA.gov is the U.S. government's official web portal to all federal, state and local government web resources and services.